Time;durP1;ratioP1;P1;durP2;ratioP2;P2;SDS_P1;SDS_P2;PMS_P1;PMS_P2;Temp;Humidity;BMP_temperature;BMP_pressure;BME280_temperature;BME280_humidity;BME280_pressure;Samples;Min_cycle;Max_cycle;Signal;HPM_P1;HPM_P2
2021/12/17 00:00:46;;;;;;;29.47;11.37;;;;;;;2.90;93.47;97432.94;5115571;28;20512;-37
2021/12/17 00:03:19;;;;;;;23.00;12.83;;;;;;;2.89;93.50;97434.75;5115381;28;20976;-35
2021/12/17 00:06:06;;;;;;;18.90;10.20;;;;;;;2.87;93.30;97429.69;5115303;28;20506;-38
2021/12/17 00:08:35;;;;;;;17.40;10.13;;;;;;;2.87;93.56;97423.63;5115297;28;20461;-38
2021/12/17 00:11:03;;;;;;;27.70;13.07;;;;;;;2.91;93.20;97434.59;5115156;28;20442;-37
2021/12/17 00:13:30;;;;;;;23.10;11.23;;;;;;;2.90;93.02;97440.81;5115413;28;20441;-38
2021/12/17 00:15:57;;;;;;;19.93;12.63;;;;;;;2.92;93.34;97438.84;5115329;28;20471;-37
2021/12/17 00:18:32;;;;;;;15.90;10.23;;;;;;;2.92;92.93;97441.47;5115315;27;20515;-37
2021/12/17 00:48:38;;;;;;;20.30;9.83;;;;;;;3.00;92.37;97430.94;5114836;28;20519;-37
2021/12/17 00:53:58;;;;;;;17.63;9.43;;;;;;;2.98;91.76;97427.66;5114548;28;20410;-37
2021/12/17 00:56:27;;;;;;;15.47;7.90;;;;;;;2.98;91.56;97430.28;5114366;28;20998;-37
2021/12/17 00:58:56;;;;;;;16.20;7.90;;;;;;;3.02;91.13;97429.75;5114177;28;20455;-37
2021/12/17 01:01:24;;;;;;;14.03;8.43;;;;;;;2.97;91.85;97433.88;5114202;28;20442;-37
2021/12/17 01:03:52;;;;;;;15.13;7.93;;;;;;;2.92;91.70;97426.53;5114174;28;20442;-37
2021/12/17 01:06:21;;;;;;;18.90;8.80;;;;;;;2.87;91.84;97400.81;5114173;28;20944;-37
2021/12/17 01:08:49;;;;;;;14.93;8.00;;;;;;;3.05;91.82;97423.34;5114095;28;20930;-37
2021/12/17 01:11:17;;;;;;;17.83;8.93;;;;;;;3.05;91.67;97429.44;5114417;28;20547;-37
2021/12/17 01:13:45;;;;;;;14.93;8.73;;;;;;;3.05;91.80;97418.09;5114114;28;20445;-38
2021/12/17 01:16:12;;;;;;;12.47;8.27;;;;;;;3.02;91.85;97413.22;5113995;28;20439;-37
2021/12/17 01:18:51;;;;;;;17.63;7.67;;;;;;;3.01;91.89;97412.41;5114368;28;20433;-38
2021/12/17 01:21:29;;;;;;;20.40;9.83;;;;;;;3.05;91.91;97418.94;5113972;28;20468;-37
2021/12/17 01:24:29;;;;;;;14.07;8.37;;;;;;;2.98;91.96;97390.94;5113973;28;20431;-34
2021/12/17 01:35:28;;;;;;;19.23;7.53;;;;;;;2.96;92.13;97382.41;5113978;28;20941;-37
2021/12/17 01:43:31;;;;;;;16.13;7.50;;;;;;;3.05;92.02;97382.22;5113735;28;20456;-37
2021/12/17 01:46:01;;;;;;;15.17;7.77;;;;;;;3.01;91.91;97390.56;5113780;28;20437;-36
2021/12/17 01:48:37;;;;;;;19.93;9.00;;;;;;;3.03;91.96;97394.69;5113869;28;20469;-37
2021/12/17 01:56:52;;;;;;;16.97;9.43;;;;;;;3.05;91.64;97381.38;5118174;28;20410;-37
2021/12/17 01:59:23;;;;;;;17.03;7.50;;;;;;;3.06;91.92;97385.66;5117740;28;20548;-37
2021/12/17 02:01:53;;;;;;;15.23;7.40;;;;;;;3.05;92.19;97376.13;5117673;27;20437;-37
2021/12/17 02:04:21;;;;;;;10.53;8.50;;;;;;;3.10;91.88;97376.44;5117711;28;20437;-37
2021/12/17 02:06:48;;;;;;;13.70;7.33;;;;;;;3.09;92.11;97380.03;5117938;28;20478;-37
2021/12/17 02:09:55;;;;;;;12.30;7.30;;;;;;;3.08;92.11;97365.28;5117519;28;20926;-37
2021/12/17 02:29:32;;;;;;;18.37;8.70;;;;;;;2.97;91.06;97342.06;5117043;28;20511;-38
2021/12/17 02:32:05;;;;;;;14.80;7.43;;;;;;;3.07;90.82;97374.13;5117184;28;20440;-37
2021/12/17 02:34:51;;;;;;;18.17;8.90;;;;;;;3.06;90.46;97369.91;5117403;28;20441;-36
2021/12/17 02:37:26;;;;;;;10.77;6.67;;;;;;;3.12;90.38;97366.59;5117323;28;20437;-35
2021/12/17 02:40:07;;;;;;;11.43;7.20;;;;;;;3.12;90.54;97377.09;5117189;28;20576;-37
2021/12/17 02:45:34;;;;;;;12.83;7.80;;;;;;;3.15;90.53;97360.97;5117062;28;20434;-37
2021/12/17 02:48:06;;;;;;;13.50;7.93;;;;;;;3.15;90.23;97360.97;5117155;28;20446;-38
2021/12/17 02:50:35;;;;;;;12.50;7.87;;;;;;;3.16;90.31;97360.00;5117033;28;20422;-37
2021/12/17 02:53:07;;;;;;;12.13;7.93;;;;;;;3.13;90.44;97356.91;5116651;28;20813;-37
2021/12/17 02:55:36;;;;;;;15.83;8.13;;;;;;;2.92;90.86;97328.66;5116665;28;20434;-36
2021/12/17 02:58:05;;;;;;;15.23;7.60;;;;;;;3.12;90.70;97360.50;5116985;28;20457;-37
2021/12/17 03:00:33;;;;;;;14.20;7.33;;;;;;;3.13;90.97;97352.47;5116471;28;20494;-38
2021/12/17 03:03:02;;;;;;;16.67;8.00;;;;;;;3.10;90.73;97351.97;5115896;28;20438;-37
2021/12/17 03:05:30;;;;;;;15.47;8.70;;;;;;;3.12;90.78;97356.09;5116267;28;20499;-37
2021/12/17 03:07:58;;;;;;;17.53;8.80;;;;;;;3.14;91.06;97361.97;5116682;28;20469;-37
2021/12/17 03:10:27;;;;;;;15.07;9.40;;;;;;;3.17;90.82;97348.50;5116333;28;20438;-37
2021/12/17 03:12:58;;;;;;;16.50;10.73;;;;;;;3.10;91.00;97346.72;5116579;28;20438;-35
2021/12/17 03:15:33;;;;;;;11.33;7.27;;;;;;;3.19;90.78;97357.00;5116389;28;20430;-37
2021/12/17 03:23:41;;;;;;;13.03;6.70;;;;;;;3.24;90.62;97343.34;5116290;28;20403;-37
2021/12/17 03:26:11;;;;;;;13.27;8.70;;;;;;;3.22;90.10;97340.91;5115998;28;20442;-37
2021/12/17 03:28:41;;;;;;;18.63;9.80;;;;;;;3.22;90.80;97338.28;5115791;28;20470;-35
2021/12/17 03:31:10;;;;;;;12.13;8.13;;;;;;;3.21;91.11;97334.03;5115881;28;20917;-36
2021/12/17 03:33:41;;;;;;;13.73;8.43;;;;;;;3.06;91.00;97314.81;5115975;28;20440;-36
2021/12/17 03:36:09;;;;;;;18.63;9.57;;;;;;;3.12;90.88;97319.34;5116244;28;20441;-36
2021/12/17 03:38:36;;;;;;;15.13;9.40;;;;;;;3.26;91.16;97347.44;5115842;28;20998;-35
2021/12/17 03:41:13;;;;;;;12.30;7.80;;;;;;;3.26;90.95;97342.19;5115689;28;20489;-35
2021/12/17 03:43:42;;;;;;;18.10;8.93;;;;;;;3.26;91.04;97350.06;5115747;28;20458;-36
2021/12/17 03:46:10;;;;;;;12.77;8.40;;;;;;;3.27;90.79;97349.06;5115677;28;20446;-36
2021/12/17 03:48:39;;;;;;;14.37;7.90;;;;;;;3.13;91.23;97315.72;5115622;28;20925;-35
2021/12/17 03:51:12;;;;;;;18.70;12.47;;;;;;;3.25;91.28;97335.31;5115905;28;20445;-34
2021/12/17 03:53:40;;;;;;;20.07;9.00;;;;;;;3.27;91.39;97328.09;5116445;28;20497;-34
2021/12/17 03:56:08;;;;;;;14.83;8.50;;;;;;;3.29;91.37;97335.75;5115794;28;20477;-36
2021/12/17 03:58:35;;;;;;;20.00;8.30;;;;;;;3.29;91.78;97330.50;5115402;28;20449;-35
2021/12/17 04:01:04;;;;;;;17.97;9.93;;;;;;;3.27;91.85;97330.72;5115380;28;20490;-34
2021/12/17 04:03:32;;;;;;;35.83;19.47;;;;;;;3.28;92.03;97321.81;5116463;28;20793;-37
2021/12/17 04:06:00;;;;;;;53.80;29.13;;;;;;;3.26;92.20;97309.88;5115621;28;20441;-37
2021/12/17 04:08:27;;;;;;;31.30;15.00;;;;;;;3.21;92.54;97292.03;5115273;28;20448;-37
2021/12/17 04:11:02;;;;;;;23.50;11.00;;;;;;;3.21;92.53;97296.47;5115232;28;20450;-37
2021/12/17 04:13:33;;;;;;;20.93;11.13;;;;;;;3.19;92.87;97306.34;5115310;28;20426;-37
2021/12/17 04:16:03;;;;;;;20.23;11.63;;;;;;;3.18;92.90;97312.56;5115141;28;20790;-36
2021/12/17 04:18:33;;;;;;;17.57;10.20;;;;;;;3.16;93.15;97299.66;5115415;28;20470;-36
2021/12/17 04:21:03;;;;;;;26.63;11.23;;;;;;;3.18;93.22;97292.38;5114937;28;20542;-37
2021/12/17 04:23:32;;;;;;;15.87;10.43;;;;;;;3.16;93.25;97299.66;5115339;28;20481;-37
2021/12/17 04:26:00;;;;;;;19.03;10.43;;;;;;;3.08;93.57;97291.84;5115207;28;20795;-36
2021/12/17 04:28:28;;;;;;;19.83;10.17;;;;;;;3.13;93.60;97294.72;5114905;28;20973;-37
2021/12/17 04:30:55;;;;;;;16.30;9.67;;;;;;;3.10;93.28;97295.09;5114808;28;20477;-36
2021/12/17 04:33:23;;;;;;;17.47;9.57;;;;;;;3.09;93.41;97282.94;5115121;28;20446;-37
2021/12/17 04:35:52;;;;;;;15.90;10.10;;;;;;;3.11;93.62;97278.34;5114743;28;20447;-37
2021/12/17 04:38:21;;;;;;;22.17;10.63;;;;;;;3.11;93.54;97285.41;5114984;28;20566;-37
2021/12/17 04:40:51;;;;;;;16.57;11.00;;;;;;;3.07;93.54;97269.19;5114863;28;20813;-38
2021/12/17 04:43:31;;;;;;;17.57;10.73;;;;;;;3.12;93.84;97266.88;5114887;27;20529;-37
2021/12/17 04:46:12;;;;;;;14.13;9.10;;;;;;;3.12;93.61;97260.78;5114591;28;20430;-37
2021/12/17 04:59:40;;;;;;;19.07;8.53;;;;;;;3.11;92.54;97233.75;5114427;28;20905;-37
2021/12/17 05:02:08;;;;;;;16.60;9.60;;;;;;;3.12;92.33;97235.38;5114198;28;20497;-37
2021/12/17 05:04:35;;;;;;;15.10;8.90;;;;;;;3.15;92.13;97242.09;5114203;28;20447;-38
2021/12/17 05:07:07;;;;;;;18.67;9.20;;;;;;;3.15;92.22;97242.88;5114150;28;20485;-37
2021/12/17 05:09:41;;;;;;;16.47;8.80;;;;;;;3.17;92.00;97245.34;5114490;28;20457;-37
2021/12/17 05:20:32;;;;;;;12.23;5.73;;;;;;;3.22;91.39;97246.41;5114088;28;20505;-35
2021/12/17 05:23:01;;;;;;;11.57;7.37;;;;;;;3.21;91.63;97249.25;5114286;28;20477;-35
2021/12/17 05:25:29;;;;;;;9.80;6.17;;;;;;;3.27;91.36;97254.59;5113920;28;20530;-35
2021/12/17 05:28:00;;;;;;;14.80;8.03;;;;;;;3.27;91.53;97243.28;5113520;28;20446;-35
2021/12/17 05:30:28;;;;;;;17.10;10.50;;;;;;;3.30;91.65;97263.91;5114749;28;20433;-34
2021/12/17 05:32:56;;;;;;;19.50;10.23;;;;;;;3.31;91.62;97264.72;5114419;28;20544;-35
2021/12/17 05:35:24;;;;;;;12.60;6.73;;;;;;;3.31;91.76;97267.34;5113838;28;20442;-37
2021/12/17 05:37:51;;;;;;;16.00;8.97;;;;;;;3.34;91.77;97253.88;5113884;28;20937;-37
2021/12/17 05:40:20;;;;;;;15.43;8.50;;;;;;;3.34;91.88;97259.13;5113613;28;20517;-37
2021/12/17 05:42:50;;;;;;;18.37;10.70;;;;;;;3.34;91.56;97264.38;5112112;28;20914;-36
2021/12/17 05:45:31;;;;;;;38.57;14.03;;;;;;;3.38;91.61;97263.84;5111648;28;20963;-35
2021/12/17 05:47:59;;;;;;;21.77;12.43;;;;;;;3.39;91.82;97267.28;5111708;28;20789;-36
2021/12/17 05:50:26;;;;;;;21.27;11.73;;;;;;;3.40;91.98;97258.41;5111896;28;20487;-38
2021/12/17 05:52:53;;;;;;;26.33;12.63;;;;;;;3.42;92.06;97269.53;5111942;28;20446;-37
2021/12/17 05:55:22;;;;;;;33.43;20.40;;;;;;;3.45;92.18;97277.06;5111148;28;20442;-35
2021/12/17 05:57:49;;;;;;;29.63;17.43;;;;;;;3.45;92.38;97277.88;5111851;28;20438;-35
2021/12/17 06:00:18;;;;;;;17.23;10.83;;;;;;;3.46;92.49;97276.06;5111484;28;20438;-37
2021/12/17 06:02:46;;;;;;;15.30;9.07;;;;;;;3.45;92.81;97283.13;5111856;28;21021;-35
2021/12/17 06:05:13;;;;;;;30.20;15.20;;;;;;;3.45;92.79;97277.88;5111516;28;20467;-35
2021/12/17 06:07:40;;;;;;;21.10;11.63;;;;;;;3.46;92.71;97278.69;5111432;28;20937;-35
2021/12/17 06:10:09;;;;;;;19.57;10.83;;;;;;;3.49;92.95;97283.59;5111344;28;20532;-35
2021/12/17 06:12:38;;;;;;;29.50;17.10;;;;;;;3.51;92.87;97281.59;5111467;28;20491;-37
2021/12/17 06:15:09;;;;;;;11.57;8.73;;;;;;;3.37;93.13;97274.50;5111388;28;20446;-37
2021/12/17 06:17:36;;;;;;;10.40;6.80;;;;;;;3.53;92.96;97286.66;5112006;28;20525;-37
2021/12/17 06:20:04;;;;;;;21.63;12.17;;;;;;;3.55;92.84;97282.88;5111343;28;20446;-39
2021/12/17 06:22:31;;;;;;;21.63;10.70;;;;;;;3.47;93.36;97275.06;5111174;28;20493;-37
2021/12/17 06:24:58;;;;;;;19.80;10.20;;;;;;;3.49;93.59;97289.66;5111263;28;20446;-38
2021/12/17 06:27:26;;;;;;;13.13;8.17;;;;;;;3.50;93.38;97274.72;5111352;28;20445;-38
2021/12/17 06:29:55;;;;;;;12.47;8.40;;;;;;;3.36;93.33;97278.16;5111162;28;20474;-36
2021/12/17 06:32:23;;;;;;;13.73;7.87;;;;;;;3.51;93.46;97281.59;5111253;28;20433;-37
2021/12/17 06:34:50;;;;;;;17.30;11.27;;;;;;;3.55;93.14;97272.38;5111042;28;20445;-37
2021/12/17 06:37:18;;;;;;;17.30;11.33;;;;;;;3.58;93.36;97269.38;5111184;28;20557;-38
2021/12/17 06:39:46;;;;;;;70.07;37.17;;;;;;;3.60;92.95;97264.75;5113638;28;20456;-38
2021/12/17 06:42:14;;;;;;;60.33;30.47;;;;;;;3.62;92.91;97269.84;5114868;28;20492;-38
2021/12/17 06:44:43;;;;;;;43.00;18.73;;;;;;;3.63;92.97;97274.91;5115211;28;20921;-37
2021/12/17 06:47:23;;;;;;;51.57;23.00;;;;;;;3.65;92.90;97272.91;5114803;28;20529;-39
2021/12/17 06:49:57;;;;;;;44.67;20.90;;;;;;;3.68;92.96;97266.50;5115124;28;20426;-37
2021/12/17 06:55:24;;;;;;;31.03;15.53;;;;;;;3.52;93.01;97227.28;5114811;28;20915;-37
2021/12/17 07:01:03;;;;;;;21.23;11.53;;;;;;;3.72;92.72;97251.97;5113970;28;20592;-38
2021/12/17 07:06:30;;;;;;;36.97;15.50;;;;;;;3.78;92.82;97235.50;5114566;28;20413;-38
2021/12/17 07:09:32;;;;;;;15.07;8.50;;;;;;;3.79;93.34;97244.22;5114370;28;20427;-37
2021/12/17 07:17:24;;;;;;;18.70;9.47;;;;;;;3.84;94.29;97228.72;5114389;28;20452;-36
2021/12/17 07:20:57;;;;;;;15.73;8.70;;;;;;;3.90;94.40;97220.09;5114141;28;20509;-38
2021/12/17 07:23:12;;;;;;;37.87;15.63;;;;;;;3.90;94.81;97227.97;5113962;28;20432;-38
2021/12/17 07:28:55;;;;;;;44.87;18.13;;;;;;;3.85;95.85;97219.81;5115980;28;20457;-37
2021/12/17 07:34:09;;;;;;;26.50;12.37;;;;;;;3.83;96.87;97222.66;5114052;28;20418;-37
2021/12/17 07:36:42;;;;;;;37.77;17.20;;;;;;;3.84;97.98;97213.75;5113872;28;20867;-38
2021/12/17 07:39:08;;;;;;;23.80;12.57;;;;;;;3.85;98.32;97214.56;5113831;28;20438;-36
2021/12/17 07:41:36;;;;;;;30.13;13.20;;;;;;;3.85;99.40;97219.81;5114046;28;21073;-37
2021/12/17 07:44:04;;;;;;;22.03;11.77;;;;;;;3.88;99.66;97224.72;5113621;27;20442;-36
2021/12/17 07:46:32;;;;;;;35.27;18.30;;;;;;;3.87;99.83;97225.72;5113935;28;20449;-38
2021/12/17 07:48:59;;;;;;;16.23;10.87;;;;;;;3.90;100.00;97233.25;5113513;28;20917;-35
2021/12/17 07:51:27;;;;;;;10.53;8.20;;;;;;;3.91;100.00;97226.97;5113346;28;21256;-37
2021/12/17 07:53:56;;;;;;;17.60;6.23;;;;;;;3.98;100.00;97229.69;5113462;28;21012;-38
2021/12/17 07:56:26;;;;;;;10.30;7.43;;;;;;;3.92;100.00;97223.38;5113305;28;20466;-36
2021/12/17 07:58:54;;;;;;;9.63;5.77;;;;;;;3.81;100.00;97208.06;5113810;28;20794;-37
2021/12/17 08:01:21;;;;;;;15.50;8.93;;;;;;;3.95;100.00;97225.63;5113325;28;20500;-36
2021/12/17 08:03:49;;;;;;;10.77;6.80;;;;;;;3.96;100.00;97227.25;5113593;28;20442;-37
2021/12/17 08:06:16;;;;;;;9.53;6.20;;;;;;;3.94;100.00;97228.44;5113223;28;20434;-36
2021/12/17 08:08:43;;;;;;;11.70;6.47;;;;;;;3.99;100.00;97226.06;5113188;28;20453;-37
2021/12/17 08:11:12;;;;;;;7.93;5.97;;;;;;;4.00;100.00;97230.31;5112738;28;20445;-38
2021/12/17 08:13:41;;;;;;;6.30;4.83;;;;;;;3.95;100.00;97219.56;5113048;28;20476;-38
2021/12/17 08:16:31;;;;;;;11.17;6.43;;;;;;;3.99;100.00;97224.25;5113450;28;20450;-37
2021/12/17 08:27:42;;;;;;;9.53;5.20;;;;;;;4.01;100.00;97231.97;5069897;28;20478;-38
2021/12/17 08:30:27;;;;;;;7.90;5.80;;;;;;;4.00;100.00;97215.38;5069657;28;20476;-37
2021/12/17 08:32:54;;;;;;;9.90;6.43;;;;;;;3.86;100.00;97217.03;5069733;28;20924;-35
2021/12/17 08:35:22;;;;;;;11.30;8.23;;;;;;;3.97;100.00;97212.31;5069197;28;20440;-37
2021/12/17 08:37:49;;;;;;;13.17;8.20;;;;;;;3.96;100.00;97210.66;5069548;28;20444;-38
2021/12/17 08:40:17;;;;;;;7.97;6.57;;;;;;;4.00;100.00;97206.66;5069496;28;20444;-37
2021/12/17 08:42:46;;;;;;;9.03;6.20;;;;;;;3.99;100.00;97219.00;5069528;28;21034;-37
2021/12/17 08:45:13;;;;;;;9.67;6.80;;;;;;;4.02;100.00;97215.19;5069450;28;20444;-37
2021/12/17 08:47:43;;;;;;;25.73;13.30;;;;;;;4.02;100.00;97223.91;5069485;28;20436;-38
2021/12/17 08:50:12;;;;;;;63.33;24.27;;;;;;;4.04;100.00;97208.75;5069007;28;20478;-37
2021/12/17 08:52:39;;;;;;;94.37;39.30;;;;;;;4.03;100.00;97209.75;5069410;28;20534;-36
2021/12/17 08:55:07;;;;;;;101.30;35.03;;;;;;;3.68;100.00;97141.25;5069338;28;20432;-37
2021/12/17 08:57:34;;;;;;;126.37;42.27;;;;;;;4.04;100.00;97203.50;5075748;28;20529;-38
2021/12/17 09:00:07;;;;;;;69.57;28.77;;;;;;;4.07;100.00;97197.88;5112302;28;20510;-38
2021/12/17 09:02:37;;;;;;;55.73;24.50;;;;;;;4.03;100.00;97191.34;5111386;28;20482;-38
2021/12/17 09:05:04;;;;;;;35.07;16.73;;;;;;;4.06;100.00;97190.97;5112523;28;20442;-38
2021/12/17 09:07:32;;;;;;;34.40;18.07;;;;;;;4.05;100.00;97189.34;5112173;28;20464;-38
2021/12/17 09:09:59;;;;;;;17.70;11.20;;;;;;;4.10;100.00;97188.78;5112097;28;20465;-37
2021/12/17 09:12:26;;;;;;;22.33;10.53;;;;;;;4.15;100.00;97190.88;5112101;28;20458;-38
2021/12/17 09:14:54;;;;;;;19.47;12.07;;;;;;;4.18;100.00;97193.13;5111598;28;20457;-38
2021/12/17 09:17:24;;;;;;;18.53;11.07;;;;;;;4.21;100.00;97187.50;5112038;28;20438;-37
2021/12/17 09:19:52;;;;;;;20.83;9.87;;;;;;;4.23;100.00;97180.25;5111938;28;20898;-38
2021/12/17 09:22:19;;;;;;;14.93;5.77;;;;;;;4.23;100.00;97164.47;5111879;28;20525;-38
2021/12/17 09:24:46;;;;;;;8.23;5.43;;;;;;;4.28;100.00;97157.66;5111946;28;20496;-38
2021/12/17 09:27:13;;;;;;;11.20;6.40;;;;;;;4.24;99.81;97155.59;5111563;28;20927;-38
2021/12/17 09:29:41;;;;;;;8.80;5.70;;;;;;;4.31;99.33;97154.66;5111520;28;20478;-38
2021/12/17 09:32:09;;;;;;;12.60;8.67;;;;;;;4.29;99.16;97147.97;5111761;28;20438;-38
2021/12/17 09:34:38;;;;;;;7.80;5.03;;;;;;;4.31;99.31;97140.69;5112105;28;20446;-38
2021/12/17 09:37:06;;;;;;;7.80;5.43;;;;;;;4.27;99.16;97129.75;5112020;28;20445;-37
2021/12/17 09:39:33;;;;;;;7.17;4.83;;;;;;;4.34;98.93;97121.09;5112131;28;20888;-38
2021/12/17 09:42:01;;;;;;;9.87;4.87;;;;;;;4.40;98.05;97126.41;5111189;28;20895;-37
2021/12/17 09:44:29;;;;;;;7.60;5.50;;;;;;;4.27;97.74;97092.94;5111699;28;20446;-36
2021/12/17 09:46:59;;;;;;;9.83;6.20;;;;;;;4.47;98.05;97111.53;5112023;28;20536;-35
2021/12/17 09:49:26;;;;;;;8.53;5.37;;;;;;;4.49;98.13;97104.25;5111914;28;20453;-36
2021/12/17 09:51:56;;;;;;;7.10;4.87;;;;;;;4.35;98.56;97094.63;5111938;28;20460;-36
2021/12/17 09:54:23;;;;;;;7.43;4.87;;;;;;;4.47;98.54;97108.91;5111147;28;20449;-37
2021/12/17 09:56:50;;;;;;;13.27;5.30;;;;;;;4.46;98.84;97102.00;5111663;28;20444;-37
2021/12/17 09:59:18;;;;;;;8.43;5.30;;;;;;;4.35;99.06;97091.19;5111607;28;20937;-39
2021/12/17 10:01:46;;;;;;;9.80;6.17;;;;;;;4.46;99.42;97109.09;5111456;28;20856;-38
2021/12/17 10:04:19;;;;;;;7.10;4.70;;;;;;;4.48;98.78;97097.38;5111644;28;20962;-38
2021/12/17 10:06:47;;;;;;;6.97;4.60;;;;;;;4.46;99.05;97107.25;5111320;28;20498;-38
2021/12/17 10:09:17;;;;;;;12.57;5.17;;;;;;;4.42;100.00;97084.97;5111809;28;20449;-38
2021/12/17 10:12:03;;;;;;;6.07;4.53;;;;;;;4.43;100.00;97075.25;5111404;28;20813;-37
2021/12/17 10:14:31;;;;;;;8.73;5.00;;;;;;;4.36;100.00;97075.22;5115090;28;20499;-38
2021/12/17 10:17:12;;;;;;;9.30;5.57;;;;;;;4.24;100.00;97037.31;5115342;28;20441;-37
2021/12/17 10:19:47;;;;;;;12.17;4.10;;;;;;;4.44;100.00;97046.16;5114966;28;20770;-36
2021/12/17 10:22:16;;;;;;;10.87;4.67;;;;;;;4.50;100.00;97050.66;5115556;28;20582;-38
2021/12/17 10:24:46;;;;;;;9.90;4.97;;;;;;;4.58;100.00;97041.81;5115341;28;20446;-38
2021/12/17 10:27:21;;;;;;;5.50;4.60;;;;;;;4.61;100.00;97040.63;5115532;28;20473;-38
2021/12/17 10:29:49;;;;;;;6.07;4.23;;;;;;;4.68;100.00;97033.59;5115082;28;20488;-38
2021/12/17 10:32:21;;;;;;;7.20;5.33;;;;;;;4.70;100.00;97031.56;5115376;27;20479;-39
2021/12/17 10:35:05;;;;;;;7.40;5.43;;;;;;;4.74;100.00;97017.03;5114647;27;20442;-38
2021/12/17 10:37:35;;;;;;;9.80;5.80;;;;;;;4.71;100.00;97022.66;5115087;28;20438;-38
2021/12/17 10:40:19;;;;;;;11.10;5.03;;;;;;;4.72;100.00;97016.41;5114918;28;20532;-38
2021/12/17 10:43:00;;;;;;;11.53;6.70;;;;;;;4.70;100.00;97010.53;5114925;28;20492;-38
2021/12/17 10:45:30;;;;;;;12.40;6.53;;;;;;;4.71;100.00;97030.56;5114940;28;20505;-38
2021/12/17 10:48:20;;;;;;;14.03;6.77;;;;;;;4.65;100.00;97015.56;5114457;28;20533;-38
2021/12/17 10:50:49;;;;;;;16.43;8.20;;;;;;;4.66;100.00;97017.19;5114910;28;20492;-39
2021/12/17 10:53:16;;;;;;;18.90;8.83;;;;;;;4.63;100.00;97005.22;5114733;28;20482;-38
2021/12/17 10:55:47;;;;;;;10.77;5.87;;;;;;;4.61;100.00;96994.09;5114773;28;20445;-39
2021/12/17 10:58:14;;;;;;;16.00;7.33;;;;;;;4.63;100.00;96996.53;5115009;27;20922;-38
2021/12/17 11:00:50;;;;;;;10.90;7.30;;;;;;;4.46;100.00;96969.72;5114183;27;20437;-38
2021/12/17 11:03:17;;;;;;;16.47;9.00;;;;;;;4.67;100.00;96998.59;5114502;28;20492;-38
2021/12/17 11:05:45;;;;;;;18.77;8.67;;;;;;;4.71;100.00;96983.22;5114427;28;21126;-35
2021/12/17 11:08:28;;;;;;;32.10;16.17;;;;;;;4.72;100.00;96990.09;5114847;28;20495;-36
2021/12/17 11:11:05;;;;;;;41.97;19.73;;;;;;;4.76;100.00;96986.09;5114459;28;20426;-35
2021/12/17 11:13:33;;;;;;;22.27;12.20;;;;;;;4.74;100.00;96977.56;5114044;28;20435;-35
2021/12/17 11:16:01;;;;;;;8.10;5.30;;;;;;;4.76;99.62;96975.56;5114615;28;20862;-35
2021/12/17 11:18:28;;;;;;;25.03;13.47;;;;;;;4.77;99.81;96971.91;5114558;27;20448;-36
2021/12/17 11:20:56;;;;;;;22.30;11.50;;;;;;;4.58;100.00;96954.22;5114160;28;20442;-35
2021/12/17 11:23:25;;;;;;;21.30;11.87;;;;;;;4.73;100.00;96957.53;5114127;28;20521;-35
2021/12/17 11:25:56;;;;;;;25.53;13.20;;;;;;;4.71;100.00;96968.25;5112933;28;20445;-34
2021/12/17 11:28:25;;;;;;;18.93;12.70;;;;;;;4.70;100.00;96965.81;5113905;28;20980;-35
2021/12/17 11:30:53;;;;;;;24.70;13.67;;;;;;;4.68;100.00;96965.19;5114360;28;20808;-35
2021/12/17 11:33:20;;;;;;;31.57;18.87;;;;;;;4.70;100.00;96964.00;5113942;28;20442;-35
2021/12/17 11:35:49;;;;;;;15.30;8.80;;;;;;;4.70;100.00;96955.28;5114018;27;20445;-35
2021/12/17 11:38:25;;;;;;;10.37;7.30;;;;;;;4.69;100.00;96953.69;5115874;28;20453;-34
2021/12/17 11:40:55;;;;;;;14.93;9.30;;;;;;;4.69;100.00;96953.69;5116220;28;20422;-36
2021/12/17 11:43:53;;;;;;;9.20;5.60;;;;;;;4.74;100.00;96951.28;5114432;27;20484;-37
2021/12/17 11:46:25;;;;;;;29.10;14.50;;;;;;;4.73;100.00;96949.63;5113720;28;20938;-35
2021/12/17 11:48:55;;;;;;;9.17;6.33;;;;;;;4.69;100.00;96951.06;5114048;28;20786;-37
2021/12/17 11:51:25;;;;;;;8.10;5.80;;;;;;;4.61;100.00;96957.28;5113584;28;20437;-37
2021/12/17 11:53:59;;;;;;;9.40;6.80;;;;;;;4.58;100.00;96941.06;5113613;28;20433;-37
2021/12/17 11:56:38;;;;;;;14.50;7.97;;;;;;;4.62;100.00;96951.00;5113342;28;20431;-37
2021/12/17 11:59:07;;;;;;;15.30;8.80;;;;;;;4.58;100.00;96947.16;5113500;28;20434;-37
2021/12/17 12:01:59;;;;;;;8.13;5.33;;;;;;;4.61;100.00;96953.84;5113687;28;20458;-36
2021/12/17 12:04:51;;;;;;;11.43;8.20;;;;;;;4.66;100.00;96943.53;5113659;28;20461;-38
2021/12/17 12:07:20;;;;;;;12.43;9.30;;;;;;;4.63;100.00;96943.94;5113274;28;20434;-37
2021/12/17 12:09:59;;;;;;;22.67;11.13;;;;;;;4.49;100.00;96920.19;5113136;28;20446;-36
2021/12/17 12:12:29;;;;;;;8.80;5.70;;;;;;;4.63;100.00;96951.84;5113284;28;20436;-37
2021/12/17 12:15:31;;;;;;;15.77;7.80;;;;;;;4.67;100.00;96940.72;5113125;28;20423;-37
2021/12/17 12:18:22;;;;;;;20.20;9.50;;;;;;;4.64;100.00;96950.81;5113088;28;20921;-37
2021/12/17 12:20:57;;;;;;;13.23;8.90;;;;;;;4.60;100.00;96953.00;5097663;28;20454;-37
2021/12/17 12:23:37;;;;;;;15.80;8.67;;;;;;;4.56;100.00;96945.69;5112672;28;20477;-35
2021/12/17 12:26:40;;;;;;;10.90;7.77;;;;;;;4.53;100.00;96946.09;5113215;28;20512;-35
2021/12/17 12:29:21;;;;;;;21.23;12.40;;;;;;;4.51;100.00;96947.09;5112684;27;20542;-37
2021/12/17 12:32:19;;;;;;;13.40;8.73;;;;;;;4.45;100.00;96937.38;5113146;28;20438;-37
2021/12/17 12:34:47;;;;;;;10.30;6.57;;;;;;;4.48;100.00;96944.88;5112310;28;20453;-37
2021/12/17 12:37:24;;;;;;;13.37;7.37;;;;;;;4.48;100.00;96946.69;5111687;28;20461;-37
2021/12/17 12:40:15;;;;;;;12.10;7.97;;;;;;;4.43;100.00;96928.88;5113018;28;20422;-36
2021/12/17 12:42:51;;;;;;;10.57;6.00;;;;;;;4.39;100.00;96938.16;5112595;28;20999;-35
2021/12/17 12:45:19;;;;;;;11.80;8.13;;;;;;;4.42;100.00;96927.22;5112504;28;20418;-37
2021/12/17 12:47:58;;;;;;;12.17;7.43;;;;;;;4.32;100.00;96895.22;5112815;28;20917;-36
2021/12/17 12:50:29;;;;;;;6.60;5.00;;;;;;;4.40;100.00;96921.34;5112603;28;20503;-36
2021/12/17 12:53:00;;;;;;;26.53;16.03;;;;;;;4.46;100.00;96912.69;5112470;28;20433;-37
2021/12/17 12:55:30;;;;;;;9.43;6.80;;;;;;;4.34;100.00;96903.72;5112675;28;20448;-37
2021/12/17 12:58:08;;;;;;;14.30;7.90;;;;;;;4.43;100.00;96923.63;5112427;28;20434;-36
2021/12/17 13:00:39;;;;;;;6.40;4.97;;;;;;;4.42;100.00;96916.72;5112321;28;20422;-36
2021/12/17 13:03:10;;;;;;;6.53;5.00;;;;;;;4.48;100.00;96917.75;5112186;28;20758;-37
2021/12/17 13:05:38;;;;;;;6.37;4.30;;;;;;;4.39;100.00;96919.75;5112516;28;20440;-38
2021/12/17 13:08:08;;;;;;;9.47;5.83;;;;;;;4.43;100.00;96926.25;5112177;28;20446;-36
2021/12/17 13:10:38;;;;;;;8.93;5.13;;;;;;;4.41;100.00;96920.38;5112068;28;20450;-37
2021/12/17 13:13:15;;;;;;;14.73;5.60;;;;;;;4.37;100.00;96920.94;5112650;28;20438;-37
2021/12/17 13:15:49;;;;;;;9.30;6.07;;;;;;;4.37;100.00;96924.38;5111968;28;20422;-36
2021/12/17 13:21:20;;;;;;;8.40;6.80;;;;;;;4.26;100.00;96932.81;5112170;28;20777;-35
2021/12/17 13:23:52;;;;;;;8.00;6.97;;;;;;;4.21;100.00;96937.81;5112228;28;20484;-36
2021/12/17 13:26:23;;;;;;;8.70;5.33;;;;;;;4.15;100.00;96936.78;5112282;28;20434;-37
2021/12/17 13:29:05;;;;;;;7.27;4.23;;;;;;;4.13;100.00;96927.44;5111317;28;20482;-37
2021/12/17 13:31:36;;;;;;;9.63;4.60;;;;;;;4.04;100.00;96929.41;5111969;28;20972;-37
2021/12/17 13:34:09;;;;;;;7.93;4.50;;;;;;;3.97;100.00;96926.75;5111876;28;20542;-37
2021/12/17 13:36:37;;;;;;;6.67;5.10;;;;;;;3.94;100.00;96919.25;5111870;28;20991;-37
2021/12/17 13:39:06;;;;;;;14.27;7.43;;;;;;;3.96;100.00;96913.78;5111752;28;20446;-37
2021/12/17 13:41:36;;;;;;;37.57;14.40;;;;;;;3.97;100.00;96918.84;5111416;28;20438;-35
2021/12/17 13:44:05;;;;;;;12.73;7.43;;;;;;;3.90;100.00;96912.75;5112212;28;20481;-36
2021/12/17 13:46:36;;;;;;;7.40;5.20;;;;;;;3.84;100.00;96914.31;5113805;28;20449;-34
2021/12/17 13:49:04;;;;;;;13.70;8.20;;;;;;;3.90;100.00;96925.88;5117411;28;20430;-35
2021/12/17 13:51:33;;;;;;;10.30;6.20;;;;;;;3.91;100.00;96924.88;5117925;28;20925;-34
2021/12/17 13:54:02;;;;;;;16.60;8.73;;;;;;;3.94;100.00;96928.94;5118268;28;20442;-34
2021/12/17 13:56:29;;;;;;;11.93;7.83;;;;;;;3.89;100.00;96926.88;5117774;28;20457;-37